Time;durP1;ratioP1;P1;durP2;ratioP2;P2;SDS_P1;SDS_P2;PMS_P1;PMS_P2;Temp;Humidity;BMP_temperature;BMP_pressure;BME280_temperature;BME280_humidity;BME280_pressure;Samples;Min_cycle;Max_cycle;Signal;HPM_P1;HPM_P2
2022/06/03 00:01:44;;;;;;;2.63;2.13;;;;;;;12.85;60.02;101867.19;6216672;23;20322;-82
2022/06/03 00:04:21;;;;;;;2.47;2.28;;;;;;;12.83;59.13;101865.44;6215854;23;20075;-81
2022/06/03 00:07:05;;;;;;;2.30;2.10;;;;;;;12.82;59.50;101865.47;6215242;23;20018;-82
2022/06/03 00:09:46;;;;;;;2.60;2.40;;;;;;;12.78;60.36;101868.97;6216492;23;20017;-82
2022/06/03 00:12:23;;;;;;;3.33;2.58;;;;;;;12.74;60.21;101870.75;6216600;23;20024;-82
2022/06/03 00:14:55;;;;;;;2.60;2.40;;;;;;;12.72;59.37;101872.50;6214291;23;20012;-82
2022/06/03 00:17:55;;;;;;;2.40;2.20;;;;;;;12.70;59.84;101869.06;6216256;23;20005;-82
2022/06/03 00:20:44;;;;;;;4.57;3.53;;;;;;;12.64;61.98;101875.19;6215595;23;20004;-82
2022/06/03 00:23:47;;;;;;;4.05;3.10;;;;;;;12.64;61.38;101866.47;6216383;23;20326;-82
2022/06/03 00:26:33;;;;;;;3.35;2.53;;;;;;;12.63;61.14;101860.41;6215950;23;20457;-82
2022/06/03 00:29:15;;;;;;;3.25;2.65;;;;;;;12.61;61.45;101869.97;6214163;23;20012;-82
2022/06/03 00:32:07;;;;;;;2.50;2.30;;;;;;;12.59;61.97;101868.28;6215884;23;20004;-82
2022/06/03 00:34:53;;;;;;;2.40;2.20;;;;;;;12.57;60.75;101865.66;6215298;23;20036;-82
2022/06/03 00:37:45;;;;;;;2.13;2.03;;;;;;;12.52;61.19;101857.88;6216136;23;20056;-82
2022/06/03 00:40:33;;;;;;;2.03;1.83;;;;;;;12.52;60.50;101854.44;6216120;23;20013;-82
2022/06/03 00:43:27;;;;;;;1.90;1.80;;;;;;;12.49;59.76;101852.72;6214963;23;20012;-82
2022/06/03 00:46:13;;;;;;;1.65;1.55;;;;;;;12.47;63.07;101856.19;6215340;23;20398;-82
2022/06/03 00:49:04;;;;;;;4.18;3.40;;;;;;;12.40;63.45;101851.91;6214012;23;20009;-82
2022/06/03 00:52:02;;;;;;;3.20;2.90;;;;;;;12.38;62.88;101857.13;6215995;23;20333;-83
2022/06/03 00:54:40;;;;;;;2.50;2.30;;;;;;;12.36;62.60;101854.53;6216237;23;20015;-82
2022/06/03 00:57:48;;;;;;;2.20;2.00;;;;;;;12.34;62.20;101853.66;6214897;23;20001;-82
2022/06/03 01:00:22;;;;;;;2.40;2.20;;;;;;;12.24;64.58;101851.16;6216299;23;20084;-82
2022/06/03 01:03:11;;;;;;;3.30;3.00;;;;;;;12.24;62.29;101856.34;6214513;23;20302;-82
2022/06/03 01:06:14;;;;;;;3.83;3.10;;;;;;;12.22;62.01;101856.34;6215545;23;20079;-82
2022/06/03 01:08:45;;;;;;;2.97;2.67;;;;;;;12.20;62.54;101852.91;6215148;23;20017;-82
2022/06/03 01:11:35;;;;;;;2.35;2.15;;;;;;;12.19;62.38;101856.38;6214697;23;20005;-82
2022/06/03 01:14:26;;;;;;;1.75;1.65;;;;;;;12.15;64.86;101847.72;6215112;23;20008;-82
2022/06/03 01:17:09;;;;;;;2.50;2.30;;;;;;;12.16;62.29;101848.59;6214553;23;20013;-82
2022/06/03 01:19:57;;;;;;;2.28;2.08;;;;;;;12.14;61.68;101848.59;6215333;23;20063;-82
2022/06/03 01:22:45;;;;;;;1.75;1.65;;;;;;;12.14;62.35;101834.72;6215237;23;20446;-82
2022/06/03 01:25:32;;;;;;;4.80;3.58;;;;;;;12.11;63.63;101839.91;6214557;23;20000;-82
2022/06/03 01:28:25;;;;;;;5.43;3.90;;;;;;;12.09;64.09;101834.75;6215174;23;20005;-82
2022/06/03 01:31:08;;;;;;;7.00;4.47;;;;;;;12.07;65.28;101833.03;6214624;23;20016;-82
2022/06/03 01:34:02;;;;;;;7.07;4.30;;;;;;;12.06;64.57;101824.34;6215232;23;20007;-82
2022/06/03 01:37:01;;;;;;;5.53;4.20;;;;;;;12.05;65.49;101826.09;6215348;23;20555;-82
2022/06/03 01:39:29;;;;;;;5.95;4.55;;;;;;;12.04;64.33;101818.31;6215514;23;20000;-82
2022/06/03 01:42:15;;;;;;;6.95;4.80;;;;;;;12.02;65.90;101825.25;6215418;23;20015;-82
2022/06/03 01:45:12;;;;;;;8.60;5.20;;;;;;;12.00;65.06;101822.63;6214180;23;20004;-82
2022/06/03 01:48:07;;;;;;;6.32;4.00;;;;;;;12.01;64.37;101811.34;6215244;23;20009;-81
2022/06/03 01:50:41;;;;;;;3.30;3.00;;;;;;;12.01;64.23;101815.72;6213934;23;20008;-82
2022/06/03 01:53:29;;;;;;;3.58;3.00;;;;;;;12.02;64.08;101815.69;6214637;23;20015;-83
2022/06/03 01:56:05;;;;;;;3.00;2.70;;;;;;;12.03;64.21;101813.97;6214948;23;20337;-82
2022/06/03 01:59:27;;;;;;;2.60;2.40;;;;;;;12.02;64.96;101810.50;6214224;23;20011;-82
2022/06/03 02:02:50;;;;;;;6.70;4.95;;;;;;;11.97;64.68;101806.16;6122663;23;20068;-82
2022/06/03 02:05:43;;;;;;;5.45;4.00;;;;;;;11.94;65.65;101807.03;6122170;23;20010;-82
2022/06/03 02:08:54;;;;;;;6.70;4.60;;;;;;;11.89;64.90;101807.06;6214972;23;20023;-82
2022/06/03 02:11:45;;;;;;;4.25;3.58;;;;;;;11.88;65.18;101802.75;6215239;23;20008;-82
2022/06/03 02:14:29;;;;;;;5.15;3.60;;;;;;;11.87;65.66;101803.59;6214335;23;20075;-82
2022/06/03 02:16:55;;;;;;;6.47;4.45;;;;;;;11.85;65.50;101800.16;6215092;23;20048;-82
2022/06/03 02:19:58;;;;;;;5.67;4.70;;;;;;;11.84;66.65;101798.41;6214351;23;20000;-82
2022/06/03 02:22:41;;;;;;;9.68;5.60;;;;;;;11.81;66.01;101790.66;6215051;23;20009;-82
2022/06/03 02:25:21;;;;;;;7.85;5.40;;;;;;;11.79;66.25;101796.72;6214882;23;20426;-82
2022/06/03 02:28:02;;;;;;;7.38;4.80;;;;;;;11.79;66.91;101799.31;6213778;23;20060;-82
2022/06/03 02:30:54;;;;;;;7.18;4.38;;;;;;;11.79;65.71;101797.59;6214793;23;20080;-82
2022/06/03 02:33:56;;;;;;;6.70;4.60;;;;;;;11.79;66.02;101800.19;6213826;23;20036;-82
2022/06/03 02:36:46;;;;;;;8.18;5.20;;;;;;;11.76;66.44;101789.78;6215349;23;20023;-82
2022/06/03 02:39:45;;;;;;;5.93;4.18;;;;;;;11.76;65.90;101792.41;6215311;23;20088;-82
2022/06/03 02:42:45;;;;;;;5.95;4.40;;;;;;;11.71;67.62;101792.41;6214136;23;20005;-82
2022/06/03 02:45:12;;;;;;;6.93;5.03;;;;;;;11.68;67.38;101795.03;6214692;23;20426;-82
2022/06/03 02:48:15;;;;;;;8.40;5.38;;;;;;;11.65;67.74;101792.44;6213822;23;20107;-82
2022/06/03 02:51:16;;;;;;;7.97;4.60;;;;;;;11.65;67.07;101783.78;6214798;23;20004;-82
2022/06/03 02:54:17;;;;;;;7.43;5.00;;;;;;;11.59;67.45;101775.16;6214786;23;20008;-82
2022/06/03 02:56:53;;;;;;;7.50;5.25;;;;;;;11.53;68.29;101775.16;6213099;23;20009;-82
2022/06/03 02:59:49;;;;;;;6.63;4.97;;;;;;;11.57;67.95;101776.88;6215183;23;20056;-82
2022/06/03 03:02:29;;;;;;;6.82;5.00;;;;;;;11.55;68.07;101778.63;6214497;23;20018;-82
2022/06/03 03:05:15;;;;;;;5.30;3.85;;;;;;;11.55;66.53;101789.03;6214485;23;20016;-82
2022/06/03 03:08:05;;;;;;;4.25;3.35;;;;;;;11.55;67.42;101793.34;6214131;23;20473;-81
2022/06/03 03:10:50;;;;;;;3.03;2.70;;;;;;;11.54;66.11;101791.66;6213454;23;20442;-82
2022/06/03 03:13:49;;;;;;;4.80;3.55;;;;;;;11.49;68.49;101793.38;6217210;23;20322;-82
2022/06/03 03:16:37;;;;;;;5.82;4.32;;;;;;;11.47;66.93;101801.19;6215757;23;20433;-82
2022/06/03 03:19:11;;;;;;;6.00;4.38;;;;;;;11.45;67.48;101787.34;6216867;23;20039;-82
2022/06/03 03:22:13;;;;;;;6.60;4.25;;;;;;;11.37;69.09;101787.34;6216299;23;20417;-81
2022/06/03 03:25:17;;;;;;;7.07;4.70;;;;;;;11.40;67.50;101778.69;6215633;23;20009;-82
2022/06/03 03:28:09;;;;;;;5.22;3.90;;;;;;;11.39;67.82;101776.94;6216569;23;20008;-82
2022/06/03 03:30:41;;;;;;;6.07;4.40;;;;;;;11.36;68.02;101771.78;6215756;23;20043;-82
2022/06/03 03:33:26;;;;;;;4.95;3.95;;;;;;;11.33;68.20;101772.63;6216267;23;20005;-82
2022/06/03 03:36:13;;;;;;;4.45;3.60;;;;;;;11.32;68.46;101770.06;6215986;23;20013;-82
2022/06/03 03:39:05;;;;;;;3.80;3.22;;;;;;;11.29;69.43;101765.75;6215779;23;20071;-82
2022/06/03 03:41:47;;;;;;;7.53;4.90;;;;;;;11.22;69.77;101772.69;6216250;23;20429;-82
2022/06/03 03:44:26;;;;;;;10.38;5.85;;;;;;;11.18;69.22;101757.97;6215899;23;20008;-82
2022/06/03 03:47:18;;;;;;;8.60;5.65;;;;;;;11.11;70.47;101761.47;6216328;23;20005;-82
2022/06/03 03:50:14;;;;;;;9.85;6.35;;;;;;;11.10;70.03;101770.13;6216350;23;20067;-82
2022/06/03 03:53:08;;;;;;;7.60;4.88;;;;;;;11.12;68.16;101771.00;6215428;23;20004;-82
2022/06/03 03:56:06;;;;;;;5.95;3.95;;;;;;;11.12;68.67;101763.19;6216391;23;20038;-82
2022/06/03 03:59:05;;;;;;;7.30;4.85;;;;;;;11.08;70.44;101766.66;6215409;23;20410;-82
2022/06/03 04:02:07;;;;;;;7.22;4.63;;;;;;;11.09;69.73;101776.19;6216848;23;20019;-82
2022/06/03 04:04:45;;;;;;;7.90;5.40;;;;;;;11.05;71.02;101762.34;6215689;23;20080;-82
2022/06/03 04:07:32;;;;;;;7.82;5.22;;;;;;;11.03;70.54;101758.88;6216318;23;20021;-82
2022/06/03 04:10:10;;;;;;;7.57;5.38;;;;;;;11.02;70.91;101756.28;6216188;23;20016;-82
2022/06/03 04:12:56;;;;;;;7.75;4.70;;;;;;;11.03;70.59;101755.44;6215419;23;20012;-82
2022/06/03 04:15:33;;;;;;;10.02;6.10;;;;;;;11.00;70.70;101756.28;6216072;23;20070;-82
2022/06/03 04:18:42;;;;;;;9.77;5.78;;;;;;;11.00;71.65;101758.88;6216046;23;20012;-82
2022/06/03 04:21:35;;;;;;;9.73;6.20;;;;;;;11.04;70.22;101750.22;6215522;23;20009;-82
2022/06/03 04:24:29;;;;;;;10.82;6.72;;;;;;;10.99;72.07;101764.94;6215645;23;20387;-82
2022/06/03 04:27:21;;;;;;;9.95;6.30;;;;;;;11.04;71.03;101758.00;6215140;23;20028;-82
2022/06/03 04:30:20;;;;;;;10.02;6.43;;;;;;;11.03;71.98;101748.50;6215843;23;20004;-82
2022/06/03 04:33:04;;;;;;;10.23;7.00;;;;;;;11.05;70.55;101745.88;6215975;23;20070;-82
2022/06/03 04:36:03;;;;;;;10.55;6.85;;;;;;;11.08;71.27;101738.06;6215799;23;20013;-82
2022/06/03 04:39:05;;;;;;;9.57;6.35;;;;;;;11.10;70.91;101738.94;6215734;23;20011;-82
2022/06/03 04:41:46;;;;;;;10.48;6.38;;;;;;;11.13;71.74;101745.00;6214849;23;20051;-82
2022/06/03 04:44:53;;;;;;;11.77;7.20;;;;;;;11.18;72.12;101755.38;6216209;23;20000;-83
2022/06/03 04:47:27;;;;;;;13.80;8.40;;;;;;;11.20;71.69;101748.44;6172433;23;20008;-82
2022/06/03 04:50:49;;;;;;;11.35;7.38;;;;;;;11.25;71.91;101761.41;6215821;23;20012;-82
2022/06/03 04:53:46;;;;;;;11.43;6.40;;;;;;;11.33;70.86;101759.63;6215521;23;20023;-82
2022/06/03 04:56:37;;;;;;;9.20;5.80;;;;;;;11.37;70.99;101773.50;6214623;23;20008;-83
2022/06/03 04:59:41;;;;;;;10.80;6.60;;;;;;;11.39;71.49;101772.63;6215478;23;20422;-83
2022/06/03 05:02:31;;;;;;;12.68;7.80;;;;;;;11.43;71.45;101771.72;6214247;23;20429;-82
2022/06/03 05:05:33;;;;;;;11.57;7.55;;;;;;;11.50;70.16;101754.38;6215265;23;20426;-82
2022/06/03 05:08:01;;;;;;;14.00;8.00;;;;;;;11.55;71.11;101751.75;6214676;23;20016;-82
2022/06/03 05:10:42;;;;;;;9.68;6.32;;;;;;;11.61;70.40;101763.84;6215438;23;20343;-82
2022/06/03 05:13:29;;;;;;;13.93;8.10;;;;;;;11.66;71.39;101765.56;6215977;23;20000;-83
2022/06/03 05:16:17;;;;;;;14.93;8.90;;;;;;;11.71;70.47;101762.94;6214316;23;20013;-82
2022/06/03 05:18:51;;;;;;;9.90;6.38;;;;;;;11.78;70.22;101758.56;6214894;23;20000;-83
2022/06/03 05:21:43;;;;;;;9.75;6.07;;;;;;;11.82;70.13;101750.72;6215344;23;20007;-83
2022/06/03 05:24:36;;;;;;;12.98;8.40;;;;;;;11.88;70.37;101755.03;6212915;23;20144;-83
2022/06/03 05:27:31;;;;;;;9.68;6.07;;;;;;;11.95;70.92;101745.47;6215025;23;20083;-83
2022/06/03 05:30:12;;;;;;;12.00;7.65;;;;;;;12.01;70.43;101751.53;6214594;23;20012;-82
2022/06/03 05:32:49;;;;;;;13.20;7.85;;;;;;;12.10;70.64;101747.16;6215101;23;20012;-82
2022/06/03 05:35:36;;;;;;;9.50;5.93;;;;;;;12.15;70.66;101748.84;6215115;23;20013;-81
2022/06/03 05:38:04;;;;;;;11.57;7.57;;;;;;;12.20;69.99;101747.06;6214415;23;20000;-81
2022/06/03 05:40:55;;;;;;;13.20;8.18;;;;;;;12.26;69.67;101740.94;6215658;23;20011;-81
2022/06/03 05:43:38;;;;;;;13.98;8.30;;;;;;;12.34;69.96;101743.47;6214460;23;20004;-81
2022/06/03 05:46:45;;;;;;;14.30;7.88;;;;;;;12.41;69.77;101741.69;6215657;23;20016;-82
2022/06/03 05:49:31;;;;;;;10.43;6.40;;;;;;;12.47;70.14;101752.03;6215469;23;20001;-79
2022/06/03 05:52:16;;;;;;;9.00;5.97;;;;;;;12.51;69.74;101744.19;6214266;23;20018;-82
2022/06/03 05:55:03;;;;;;;10.00;6.20;;;;;;;12.59;69.04;101743.28;6214808;23;20000;-82
2022/06/03 05:57:38;;;;;;;12.02;7.38;;;;;;;12.66;69.31;101744.94;6214599;23;20005;-82
2022/06/03 06:00:12;;;;;;;9.00;6.00;;;;;;;12.74;68.47;101743.09;6215607;23;20059;-82
2022/06/03 06:02:52;;;;;;;12.30;7.63;;;;;;;12.83;68.22;101753.44;6214858;23;20055;-82
2022/06/03 06:05:32;;;;;;;15.02;8.73;;;;;;;13.03;67.72;101754.09;6214520;23;20007;-81
2022/06/03 06:08:09;;;;;;;13.07;7.65;;;;;;;14.04;67.16;101741.53;6213902;23;20017;-82
2022/06/03 06:10:48;;;;;;;9.07;6.03;;;;;;;15.90;63.84;101745.84;6214838;23;20094;-82
2022/06/03 06:13:31;;;;;;;7.15;4.88;;;;;;;17.40;58.59;101745.47;6207004;23;20008;-82
2022/06/03 06:16:11;;;;;;;8.77;5.55;;;;;;;17.13;58.18;101743.63;6214777;23;20008;-82
2022/06/03 06:18:45;;;;;;;9.63;6.25;;;;;;;16.74;56.27;101740.31;6214500;23;20008;-82
2022/06/03 06:21:41;;;;;;;11.85;7.00;;;;;;;16.72;56.70;101744.75;6215336;23;20012;-82
2022/06/03 06:24:20;;;;;;;12.15;7.00;;;;;;;16.49;57.69;101749.69;6215239;23;20001;-82
2022/06/03 06:27:30;;;;;;;10.55;7.13;;;;;;;16.57;55.75;101759.97;6214256;23;20417;-81
2022/06/03 06:30:19;;;;;;;10.25;6.90;;;;;;;16.80;54.73;101748.03;6190672;23;20084;-81
2022/06/03 06:32:59;;;;;;;9.73;5.55;;;;;;;17.12;54.76;101751.53;6214207;23;20013;-80
2022/06/03 06:35:55;;;;;;;11.30;7.47;;;;;;;17.09;54.14;101747.25;6215108;23;20012;-81
2022/06/03 06:38:36;;;;;;;9.00;6.00;;;;;;;17.27;54.48;101745.88;6215471;23;20329;-81
2022/06/03 06:41:21;;;;;;;8.73;5.78;;;;;;;17.62;55.00;101756.19;6213990;23;20066;-81
2022/06/03 06:44:08;;;;;;;6.43;4.10;;;;;;;17.96;56.19;101749.91;6214375;23;20414;-79
2022/06/03 06:46:45;;;;;;;6.85;4.70;;;;;;;18.26;54.21;101744.59;6213783;23;20422;-83
2022/06/03 06:49:33;;;;;;;8.32;5.80;;;;;;;18.10;51.59;101748.63;6214983;23;20434;-83
2022/06/03 06:52:16;;;;;;;9.35;6.18;;;;;;;17.83;53.19;101745.94;6215440;23;20039;-82
2022/06/03 06:54:51;;;;;;;5.63;4.43;;;;;;;17.91;55.11;101744.81;6215200;23;20012;-86
2022/06/03 06:57:19;;;;;;;9.75;5.70;;;;;;;17.97;51.96;101749.03;6217460;23;20012;-86
2022/06/03 07:00:05;;;;;;;7.05;4.90;;;;;;;17.94;54.37;101745.63;6216545;23;20012;-85
2022/06/03 07:02:53;;;;;;;8.90;5.50;;;;;;;17.98;52.19;101742.88;6215310;23;20418;-85
2022/06/03 07:05:50;;;;;;;11.73;7.80;;;;;;;17.31;53.38;101751.00;6217393;23;20032;-80
2022/06/03 07:08:22;;;;;;;10.15;6.25;;;;;;;17.32;54.39;101743.09;6206240;23;20016;-84
2022/06/03 07:11:05;;;;;;;9.13;5.47;;;;;;;17.41;55.54;101752.44;6216722;23;20067;-81
2022/06/03 07:13:59;;;;;;;9.13;6.15;;;;;;;17.55;53.26;101749.44;6216103;23;20004;-84
2022/06/03 07:19:57;;;;;;;9.60;6.05;;;;;;;17.51;53.55;101748.63;6216123;23;20023;-80
2022/06/03 07:22:40;;;;;;;11.45;6.85;;;;;;;17.44;53.76;101744.50;6124164;23;20006;-80
2022/06/03 07:25:23;;;;;;;8.05;5.13;;;;;;;17.53;55.86;101741.59;6125116;23;20014;-87
2022/06/03 07:28:00;;;;;;;7.97;4.28;;;;;;;17.89;55.11;101743.13;6188642;23;20004;-86
2022/06/03 07:30:43;;;;;;;6.15;4.50;;;;;;;18.06;54.08;101742.63;6215665;23;20005;-85
2022/06/03 07:33:35;;;;;;;8.65;5.47;;;;;;;17.98;52.41;101732.38;6216807;23;20005;-85
2022/06/03 07:36:28;;;;;;;7.75;4.82;;;;;;;18.13;52.50;101735.38;6215244;23;20068;-83
2022/06/03 07:38:59;;;;;;;10.00;6.30;;;;;;;17.97;53.21;101735.91;6216457;23;20016;-77
2022/06/03 07:41:33;;;;;;;9.93;5.72;;;;;;;18.01;53.70;101734.03;6216875;23;20040;-82
2022/06/03 07:44:15;;;;;;;9.70;5.45;;;;;;;18.00;52.54;101733.19;6215153;23;20484;-84
2022/06/03 07:47:00;;;;;;;10.57;6.10;;;;;;;17.90;52.84;101732.56;6216472;23;20060;-84
2022/06/03 07:49:28;;;;;;;9.20;5.82;;;;;;;17.94;53.53;101735.13;6216154;23;20315;-85
2022/06/03 07:51:59;;;;;;;8.38;4.95;;;;;;;18.11;53.20;101721.47;6214981;23;20012;-85
2022/06/03 07:54:32;;;;;;;10.30;6.40;;;;;;;18.14;53.13;101721.34;6216606;23;20009;-85
2022/06/03 07:57:18;;;;;;;10.60;6.22;;;;;;;18.14;53.52;101721.34;6214753;23;20005;-84
2022/06/03 07:59:43;;;;;;;9.73;6.03;;;;;;;18.21;52.04;101717.63;6215659;23;20426;-83
2022/06/03 08:02:19;;;;;;;9.77;6.10;;;;;;;18.34;51.61;101733.81;6216281;23;20084;-76
2022/06/03 08:04:59;;;;;;;10.13;6.03;;;;;;;18.39;51.97;101734.53;6215398;23;20004;-76
2022/06/03 08:13:03;;;;;;;10.43;6.80;;;;;;;18.49;51.88;101722.78;6215130;23;20092;-76
2022/06/03 08:15:56;;;;;;;9.87;6.20;;;;;;;18.59;52.98;101710.16;6215250;23;20425;-81
2022/06/03 08:18:25;;;;;;;7.18;4.50;;;;;;;18.85;52.35;101697.03;6215794;23;20001;-80
2022/06/03 08:20:56;;;;;;;11.02;6.60;;;;;;;18.99;51.79;101697.38;6216210;23;20000;-81
2022/06/03 08:23:22;;;;;;;7.75;4.90;;;;;;;19.13;52.25;101692.47;6215658;23;20005;-78
2022/06/03 08:25:51;;;;;;;8.90;6.07;;;;;;;19.29;49.94;101691.91;6215377;23;20084;-79
2022/06/03 08:28:22;;;;;;;10.73;6.60;;;;;;;19.25;49.76;101688.50;6216249;23;20004;-84
2022/06/03 08:30:50;;;;;;;10.48;6.22;;;;;;;19.27;49.96;101684.03;6216166;23;20005;-86
2022/06/03 08:33:25;;;;;;;9.13;5.88;;;;;;;19.26;51.07;101690.22;6215182;23;20007;-87
2022/06/03 08:35:50;;;;;;;6.80;4.60;;;;;;;19.40;50.28;101684.44;6216184;23;20020;-79
2022/06/03 08:38:47;;;;;;;7.03;4.80;;;;;;;19.49;49.70;101688.47;6216044;23;20361;-82
2022/06/03 08:41:40;;;;;;;6.82;4.70;;;;;;;19.48;49.74;101699.06;6202744;23;20004;-81
2022/06/03 08:44:26;;;;;;;5.93;4.10;;;;;;;19.67;52.41;101692.13;6215972;23;20441;-82
2022/06/03 08:47:18;;;;;;;7.85;4.38;;;;;;;19.87;49.01;101688.75;6214764;23;20016;-81
2022/06/03 08:49:57;;;;;;;8.32;5.50;;;;;;;19.85;49.23;101689.69;6202960;23;20321;-86
2022/06/03 08:52:31;;;;;;;8.43;4.82;;;;;;;20.02;50.31;101691.66;6216307;23;20299;-85
2022/06/03 08:55:01;;;;;;;9.02;5.90;;;;;;;20.18;48.16;101694.50;6214251;23;20429;-86
2022/06/03 08:57:37;;;;;;;5.90;4.50;;;;;;;20.36;50.11;101693.72;6215953;23;20373;-86
2022/06/03 09:00:29;;;;;;;8.85;5.63;;;;;;;20.52;48.25;101693.06;6215724;23;20008;-85
2022/06/03 09:02:59;;;;;;;8.88;6.07;;;;;;;20.58;47.15;101691.94;6215639;23;20005;-86
2022/06/03 09:05:31;;;;;;;7.38;4.80;;;;;;;20.64;46.19;101699.56;6216022;23;20378;-86
2022/06/03 09:08:16;;;;;;;8.95;5.60;;;;;;;20.60;47.49;101690.94;6214184;23;20020;-86
2022/06/03 09:10:59;;;;;;;4.70;3.63;;;;;;;20.75;48.52;101697.34;6215209;23;20004;-86
2022/06/03 09:13:53;;;;;;;7.88;5.07;;;;;;;20.79;47.18;101690.13;6215924;23;20018;-86
2022/06/03 09:16:20;;;;;;;7.57;4.90;;;;;;;20.90;46.54;101687.03;6215113;23;20009;-85
2022/06/03 09:18:56;;;;;;;9.18;4.80;;;;;;;20.94;45.55;101693.88;6215491;23;20029;-85
2022/06/03 09:21:33;;;;;;;7.68;4.75;;;;;;;20.98;46.48;101684.88;6214988;23;20005;-86
2022/06/03 09:24:07;;;;;;;6.35;3.92;;;;;;;21.21;46.47;101690.88;6215354;23;20059;-85
2022/06/03 09:26:41;;;;;;;7.70;4.80;;;;;;;21.27;44.82;101693.25;6215993;23;20007;-86
2022/06/03 09:29:11;;;;;;;7.40;4.45;;;;;;;21.30;43.65;101690.44;6215044;23;20363;-86
2022/06/03 09:31:38;;;;;;;5.70;4.10;;;;;;;21.38;45.75;101695.38;6215796;23;20005;-86
2022/06/03 09:34:07;;;;;;;6.88;4.88;;;;;;;21.50;43.70;101683.38;6215660;23;20243;-85
2022/06/03 09:36:33;;;;;;;5.50;3.95;;;;;;;21.62;42.46;101689.88;6214359;23;20076;-86
2022/06/03 09:39:19;;;;;;;5.25;3.40;;;;;;;21.75;42.86;101685.69;6215335;23;20004;-86
2022/06/03 09:41:48;;;;;;;4.78;3.28;;;;;;;21.83;40.61;101677.41;6205551;23;20346;-85
2022/06/03 09:44:18;;;;;;;6.20;3.60;;;;;;;21.90;40.62;101678.78;6214273;23;20484;-85
2022/06/03 09:46:44;;;;;;;5.20;3.95;;;;;;;21.87;40.80;101673.66;6215311;23;20107;-85
2022/06/03 09:49:16;;;;;;;3.85;3.08;;;;;;;22.02;42.41;101672.91;6215332;23;20009;-85
2022/06/03 09:51:55;;;;;;;3.83;2.70;;;;;;;22.29;41.25;101682.97;6213921;23;20407;-86
2022/06/03 09:54:26;;;;;;;4.30;3.10;;;;;;;22.41;42.25;101673.59;6215694;23;20032;-88
2022/06/03 09:56:56;;;;;;;2.80;2.60;;;;;;;22.63;41.14;101681.25;6214929;23;20073;-87
2022/06/03 09:59:23;;;;;;;5.65;3.95;;;;;;;22.52;38.42;101683.59;6215755;23;20000;-88
2022/06/03 10:01:50;;;;;;;5.00;3.10;;;;;;;22.55;41.26;101675.50;6215025;23;20004;-87
2022/06/03 10:04:17;;;;;;;5.05;3.50;;;;;;;22.63;39.60;101675.94;6214823;23;20000;-86
2022/06/03 10:06:45;;;;;;;4.97;3.28;;;;;;;22.69;39.90;101658.88;6215187;23;20075;-85
2022/06/03 10:14:41;;;;;;;3.83;3.22;;;;;;;22.86;38.96;101657.97;6215083;23;20070;-86
2022/06/03 10:17:10;;;;;;;3.50;2.70;;;;;;;23.03;40.39;101661.50;6215240;23;20005;-87
2022/06/03 10:19:35;;;;;;;3.95;2.97;;;;;;;23.14;39.11;101654.66;6214061;23;20007;-86
2022/06/03 10:22:08;;;;;;;4.30;3.40;;;;;;;23.15;37.72;101660.84;6213879;23;20001;-86
2022/06/03 10:24:33;;;;;;;3.83;3.00;;;;;;;23.21;38.03;101647.28;6214730;23;20000;-85
2022/06/03 10:27:01;;;;;;;5.30;3.53;;;;;;;22.91;37.00;101645.38;6215153;23;20008;-86
2022/06/03 10:29:29;;;;;;;2.92;2.50;;;;;;;23.12;39.05;101637.16;6215373;23;20064;-86
2022/06/03 10:32:02;;;;;;;4.03;2.70;;;;;;;23.31;39.59;101633.50;6211128;23;20009;-87
2022/06/03 10:34:35;;;;;;;5.45;2.90;;;;;;;23.44;39.43;101623.91;6214373;23;20028;-88
2022/06/03 10:37:00;;;;;;;2.92;2.47;;;;;;;23.68;38.60;101620.78;6215202;23;20001;-88
2022/06/03 10:39:28;;;;;;;5.63;3.13;;;;;;;23.71;36.08;101633.88;6214104;23;20382;-87
2022/06/03 10:41:58;;;;;;;2.65;2.40;;;;;;;23.96;38.22;101632.47;6214410;23;20629;-87
2022/06/03 10:44:48;;;;;;;2.00;1.80;;;;;;;24.20;35.68;101638.94;6212904;23;20000;-87
2022/06/03 10:47:16;;;;;;;2.15;2.00;;;;;;;24.31;34.06;101634.78;6213235;23;20024;-87
2022/06/03 10:49:53;;;;;;;1.70;1.60;;;;;;;24.40;33.92;101638.66;6214107;23;20001;-87
2022/06/03 11:01:31;;;;;;;2.20;2.10;;;;;;;24.43;31.47;101618.09;6214604;23;20019;-86
2022/06/03 11:04:00;;;;;;;2.97;1.98;;;;;;;24.54;34.26;101625.41;6214937;23;20099;-88
2022/06/03 11:06:37;;;;;;;1.95;1.80;;;;;;;24.68;35.26;101616.56;6214885;23;20032;-85
2022/06/03 11:09:07;;;;;;;1.60;1.50;;;;;;;24.91;33.51;101622.25;6213153;23;20432;-85
2022/06/03 11:11:47;;;;;;;1.63;1.52;;;;;;;25.06;33.52;101620.41;6214377;23;20008;-85
2022/06/03 11:14:24;;;;;;;1.83;1.73;;;;;;;25.19;34.11;101618.66;6213641;23;20080;-84
2022/06/03 11:17:19;;;;;;;1.65;1.55;;;;;;;25.25;32.89;101620.06;6214649;23;20326;-84
2022/06/03 11:19:53;;;;;;;2.10;1.90;;;;;;;25.07;33.41;101608.81;6214204;23;20032;-83
2022/06/03 11:22:45;;;;;;;1.70;1.60;;;;;;;25.10;31.97;101611.28;6214319;23;20004;-82
2022/06/03 11:25:22;;;;;;;2.47;2.22;;;;;;;25.01;31.12;101604.75;6215052;23;20000;-82
2022/06/03 11:28:19;;;;;;;2.25;2.05;;;;;;;24.72;30.62;101609.28;6213299;23;20004;-82
2022/06/03 11:31:11;;;;;;;2.63;2.40;;;;;;;24.65;31.00;101601.69;6214432;23;20015;-83
2022/06/03 11:33:49;;;;;;;2.28;1.80;;;;;;;24.70;32.10;101601.44;6215411;23;20008;-83
2022/06/03 11:36:27;;;;;;;4.03;2.40;;;;;;;24.55;31.79;101597.91;6215399;23;20023;-83
2022/06/03 11:39:01;;;;;;;1.90;1.80;;;;;;;24.60;33.19;101602.94;6216278;23;20066;-83
2022/06/03 11:41:34;;;;;;;1.73;1.63;;;;;;;24.75;34.12;101595.81;6216052;23;20005;-82
2022/06/03 11:44:14;;;;;;;1.58;1.48;;;;;;;25.05;33.51;101598.31;6214804;23;20036;-85
2022/06/03 11:46:57;;;;;;;1.80;1.70;;;;;;;25.12;31.88;101591.63;6216344;23;20005;-84
2022/06/03 11:49:24;;;;;;;1.50;1.50;;;;;;;25.31;33.06;101595.75;6215489;23;20309;-84
2022/06/03 11:51:50;;;;;;;2.20;2.00;;;;;;;25.40;31.35;101595.19;6216258;23;20007;-84
2022/06/03 11:54:17;;;;;;;1.88;1.77;;;;;;;25.51;31.64;101598.91;6216166;23;20008;-84
2022/06/03 11:56:45;;;;;;;1.95;1.85;;;;;;;25.58;30.95;101598.41;6215181;23;20011;-85
2022/06/03 11:59:18;;;;;;;2.00;1.90;;;;;;;25.52;31.58;101595.31;6216476;23;20005;-84
2022/06/03 12:01:49;;;;;;;2.40;2.20;;;;;;;25.47;30.67;101608.03;6216223;23;20009;-84
2022/06/03 12:04:21;;;;;;;1.92;1.60;;;;;;;25.51;33.25;101607.72;6215626;23;20016;-86
2022/06/03 12:07:15;;;;;;;1.80;1.70;;;;;;;25.68;33.30;101603.94;6215624;23;20448;-84
2022/06/03 12:09:53;;;;;;;1.45;1.35;;;;;;;25.96;33.00;101611.84;6156871;23;20070;-83
2022/06/03 12:15:34;;;;;;;1.73;1.48;;;;;;;26.06;30.29;101613.78;6216342;23;20074;-84
2022/06/03 12:18:06;;;;;;;2.28;2.08;;;;;;;25.81;27.70;101611.97;6214833;23;20430;-85
2022/06/03 12:20:31;;;;;;;1.85;1.75;;;;;;;26.02;28.65;101598.97;6215997;23;20488;-85
2022/06/03 12:23:17;;;;;;;1.43;1.33;;;;;;;26.23;30.76;101590.53;6215167;23;20012;-86
2022/06/03 12:25:48;;;;;;;1.90;1.80;;;;;;;26.60;30.50;101593.19;6154049;23;20374;-85
2022/06/03 12:28:23;;;;;;;1.90;1.80;;;;;;;26.74;30.42;101578.88;6214511;23;20024;-86
2022/06/03 12:30:51;;;;;;;1.48;1.40;;;;;;;26.78;31.51;101576.91;6215097;23;20000;-84
2022/06/03 12:33:29;;;;;;;2.63;1.88;;;;;;;26.66;30.34;101586.59;6215256;23;20055;-85
2022/06/03 12:36:01;;;;;;;1.40;1.40;;;;;;;26.61;31.47;101576.28;6216052;23;20016;-85
2022/06/03 12:38:34;;;;;;;1.40;1.40;;;;;;;26.57;30.37;101574.78;6215481;23;20143;-83
2022/06/03 12:41:04;;;;;;;1.60;1.50;;;;;;;26.62;30.08;101566.50;6215376;23;20008;-85
2022/06/03 12:43:32;;;;;;;2.00;1.90;;;;;;;26.58;26.93;101575.66;6215795;23;20005;-77
2022/06/03 12:46:07;;;;;;;2.08;1.85;;;;;;;26.47;27.91;101571.09;6214761;23;20426;-84
2022/06/03 12:48:51;;;;;;;2.38;2.17;;;;;;;26.25;29.47;101580.59;6216139;23;20004;-85
2022/06/03 12:51:28;;;;;;;2.08;1.98;;;;;;;26.14;30.82;101578.72;6215443;23;20422;-82
2022/06/03 12:54:14;;;;;;;1.85;1.75;;;;;;;26.23;28.83;101579.88;6214236;23;20418;-84
2022/06/03 12:56:50;;;;;;;1.80;1.70;;;;;;;26.26;29.66;101565.50;6215586;23;20135;-84
2022/06/03 12:59:48;;;;;;;1.70;1.60;;;;;;;26.34;30.25;101566.66;6214879;23;20429;-85
2022/06/03 13:02:18;;;;;;;1.98;1.80;;;;;;;26.38;28.29;101572.63;6193241;23;20551;-85